This is the latest recevied weather packets stored in our database for station/object SR5NLK-1. If no packets are shown the sender has not sent any weather packets the latest 1 day(s).
| Time | Temp. | Humidity | Pressure | Rain* | Wind** | Luminosity | Snow |
|---|---|---|---|---|---|---|---|
| 1778004152 | 23.89° C | 28% | 1055.3 hPa | 0 mm | 1.79 m/s, 112° | - | - |
| 1778003852 | 24.44° C | 27% | 1055.4 hPa | 0 mm | 1.34 m/s, 135° | - | - |
| 1778003552 | 24.44° C | 27% | 1100.3 hPa | 0 mm | 2.24 m/s, 157° | - | - |
| 1778003252 | 25° C | 27% | 1100.3 hPa | 0 mm | 1.34 m/s, 157° | - | - |
| 1778002951 | 25° C | 27% | 1007.2 hPa | 0 mm | 0.45 m/s, 112° | - | - |
| 1778002652 | 25.56° C | 26% | 1004.1 hPa | 0 mm | 0.45 m/s, 157° | - | - |
| 1778002352 | 25.56° C | 26% | 1013.5 hPa | 0 mm | 2.24 m/s, 157° | - | - |
| 1778002052 | 25.56° C | 26% | 1100.3 hPa | 0 mm | 0.45 m/s, 180° | - | - |
| 1778001752 | 25.56° C | 26% | 1013.5 hPa | 0 mm | 0.89 m/s, 157° | - | - |
| 1778001453 | 25.56° C | 26% | 1019.7 hPa | 0 mm | 0.89 m/s, 180° | - | - |
| 1778001152 | 25.56° C | 26% | 1010.4 hPa | 0 mm | 1.34 m/s, 180° | - | - |
| 1778000971 | 25.56° C | 26% | 903.5 hPa | 0 mm | 1.79 m/s, 157° | - | - |
| 1778000852 | 25.56° C | 26% | 965.4 hPa | 0 mm | 4.47 m/s, 135° | - | - |
| 1778000552 | 26.11° C | 26% | 1058.5 hPa | 0 mm | 1.79 m/s, 202° | - | - |
| 1778000252 | 26.11° C | 26% | 1046 hPa | 0 mm | 1.79 m/s, 180° | - | - |
| 1777999952 | 26.11° C | 24% | 1049.1 hPa | 0 mm | 1.79 m/s, 157° | - | - |
| 1777999652 | 26.67° C | 24% | 1042.8 hPa | 0 mm | 0.89 m/s, 157° | - | - |
| 1777999352 | 26.67° C | 24% | 1013.5 hPa | 0 mm | 1.34 m/s, 135° | - | - |
| 1777999053 | 26.67° C | 24% | 1018.4 hPa | 0 mm | 1.79 m/s, 157° | - | - |
| 1777998991 | 26.67° C | 24% | 1055.4 hPa | 0 mm | 2.68 m/s, 180° | - | - |
| 1777998752 | 26.67° C | 23% | 1013.4 hPa | 0 mm | 1.34 m/s, 157° | - | - |
| 1777998453 | 27.22° C | 23% | 1010.4 hPa | 0 mm | 4.02 m/s, 157° | - | - |
| 1777998152 | 27.22° C | 23% | 1049.1 hPa | 0 mm | 3.13 m/s, 180° | - | - |
| 1777997852 | 27.22° C | 23% | 1052.2 hPa | 0 mm | 1.34 m/s, 180° | - | - |
| 1777997553 | 27.78° C | 23% | 1055.4 hPa | 0 mm | 2.24 m/s, 202° | - | - |
* Rain latest hour (hover to see other rain measurements)
** Current wind speed in m/s (hover to see current wind gust speed)